sensor_id;sensor_type;location;lat;lon;timestamp;P1;durP1;ratioP1;P2;durP2;ratioP2
20146;SDS011;10234;50.856;15.716;2023-05-21T00:00:42;20.98;;;12.00;;
20146;SDS011;10234;50.856;15.716;2023-05-21T00:03:08;21.85;;;12.00;;
20146;SDS011;10234;50.856;15.716;2023-05-21T00:05:38;20.80;;;13.55;;
20146;SDS011;10234;50.856;15.716;2023-05-21T00:08:04;20.17;;;12.27;;
20146;SDS011;10234;50.856;15.716;2023-05-21T00:10:32;21.73;;;11.85;;
20146;SDS011;10234;50.856;15.716;2023-05-21T00:12:59;24.83;;;12.15;;
20146;SDS011;10234;50.856;15.716;2023-05-21T00:15:28;18.80;;;12.10;;
20146;SDS011;10234;50.856;15.716;2023-05-21T00:17:56;22.48;;;12.23;;
20146;SDS011;10234;50.856;15.716;2023-05-21T00:20:23;19.85;;;12.05;;
20146;SDS011;10234;50.856;15.716;2023-05-21T00:22:50;18.00;;;11.13;;
20146;SDS011;10234;50.856;15.716;2023-05-21T00:25:16;21.10;;;11.63;;
20146;SDS011;10234;50.856;15.716;2023-05-21T00:27:44;20.13;;;10.57;;
20146;SDS011;10234;50.856;15.716;2023-05-21T00:30:11;18.60;;;11.75;;
20146;SDS011;10234;50.856;15.716;2023-05-21T00:32:38;21.30;;;11.68;;
20146;SDS011;10234;50.856;15.716;2023-05-21T00:35:07;20.27;;;11.77;;
20146;SDS011;10234;50.856;15.716;2023-05-21T00:37:34;18.85;;;11.27;;
20146;SDS011;10234;50.856;15.716;2023-05-21T00:40:02;21.45;;;11.90;;
20146;SDS011;10234;50.856;15.716;2023-05-21T00:42:38;18.98;;;11.60;;
20146;SDS011;10234;50.856;15.716;2023-05-21T00:45:06;19.42;;;11.57;;
20146;SDS011;10234;50.856;15.716;2023-05-21T00:47:33;16.55;;;11.40;;
20146;SDS011;10234;50.856;15.716;2023-05-21T00:50:01;19.73;;;11.82;;
20146;SDS011;10234;50.856;15.716;2023-05-21T00:52:30;16.60;;;10.00;;
20146;SDS011;10234;50.856;15.716;2023-05-21T00:54:57;17.38;;;11.25;;
20146;SDS011;10234;50.856;15.716;2023-05-21T00:57:24;17.15;;;11.05;;
20146;SDS011;10234;50.856;15.716;2023-05-21T00:59:52;19.05;;;12.07;;
20146;SDS011;10234;50.856;15.716;2023-05-21T01:02:19;18.52;;;10.88;;
20146;SDS011;10234;50.856;15.716;2023-05-21T01:04:48;24.95;;;11.88;;
20146;SDS011;10234;50.856;15.716;2023-05-21T01:07:15;18.67;;;11.55;;
20146;SDS011;10234;50.856;15.716;2023-05-21T01:09:44;17.45;;;11.05;;
20146;SDS011;10234;50.856;15.716;2023-05-21T01:12:11;16.65;;;11.10;;
20146;SDS011;10234;50.856;15.716;2023-05-21T01:14:39;19.25;;;11.93;;
20146;SDS011;10234;50.856;15.716;2023-05-21T01:17:06;20.38;;;12.60;;
20146;SDS011;10234;50.856;15.716;2023-05-21T01:19:34;21.40;;;11.82;;
20146;SDS011;10234;50.856;15.716;2023-05-21T01:22:03;19.85;;;11.23;;
20146;SDS011;10234;50.856;15.716;2023-05-21T01:24:32;22.70;;;11.85;;
20146;SDS011;10234;50.856;15.716;2023-05-21T01:27:00;18.95;;;11.48;;
20146;SDS011;10234;50.856;15.716;2023-05-21T01:29:31;16.35;;;10.80;;
20146;SDS011;10234;50.856;15.716;2023-05-21T01:32:01;17.33;;;11.55;;
20146;SDS011;10234;50.856;15.716;2023-05-21T01:34:39;19.73;;;10.80;;
20146;SDS011;10234;50.856;15.716;2023-05-21T01:37:12;16.63;;;10.23;;
20146;SDS011;10234;50.856;15.716;2023-05-21T01:39:46;21.27;;;12.95;;
20146;SDS011;10234;50.856;15.716;2023-05-21T01:42:16;16.98;;;11.68;;
20146;SDS011;10234;50.856;15.716;2023-05-21T01:44:44;19.65;;;11.43;;
20146;SDS011;10234;50.856;15.716;2023-05-21T01:47:12;18.95;;;11.73;;
20146;SDS011;10234;50.856;15.716;2023-05-21T01:49:41;18.95;;;10.70;;
20146;SDS011;10234;50.856;15.716;2023-05-21T01:52:08;19.70;;;11.85;;
20146;SDS011;10234;50.856;15.716;2023-05-21T01:54:35;17.80;;;11.65;;
20146;SDS011;10234;50.856;15.716;2023-05-21T01:57:03;21.02;;;10.93;;
20146;SDS011;10234;50.856;15.716;2023-05-21T01:59:30;18.52;;;10.77;;
20146;SDS011;10234;50.856;15.716;2023-05-21T02:01:57;17.25;;;10.35;;
20146;SDS011;10234;50.856;15.716;2023-05-21T02:04:26;16.95;;;10.57;;
20146;SDS011;10234;50.856;15.716;2023-05-21T02:06:53;20.60;;;11.25;;
20146;SDS011;10234;50.856;15.716;2023-05-21T02:09:21;22.98;;;11.13;;
20146;SDS011;10234;50.856;15.716;2023-05-21T02:11:47;20.80;;;11.10;;
20146;SDS011;10234;50.856;15.716;2023-05-21T02:14:16;19.50;;;10.65;;
20146;SDS011;10234;50.856;15.716;2023-05-21T02:16:44;19.95;;;10.05;;
20146;SDS011;10234;50.856;15.716;2023-05-21T02:19:11;17.50;;;10.25;;
20146;SDS011;10234;50.856;15.716;2023-05-21T02:21:38;19.30;;;11.05;;
20146;SDS011;10234;50.856;15.716;2023-05-21T02:24:05;16.48;;;10.35;;
20146;SDS011;10234;50.856;15.716;2023-05-21T02:26:32;19.17;;;11.20;;
20146;SDS011;10234;50.856;15.716;2023-05-21T02:29:00;15.27;;;10.20;;
20146;SDS011;10234;50.856;15.716;2023-05-21T02:31:28;19.65;;;11.43;;
20146;SDS011;10234;50.856;15.716;2023-05-21T02:33:55;16.55;;;10.52;;
20146;SDS011;10234;50.856;15.716;2023-05-21T02:36:22;16.33;;;10.80;;
20146;SDS011;10234;50.856;15.716;2023-05-21T02:38:50;16.45;;;9.35;;
20146;SDS011;10234;50.856;15.716;2023-05-21T02:41:17;18.38;;;9.95;;
20146;SDS011;10234;50.856;15.716;2023-05-21T02:43:45;15.82;;;10.52;;
20146;SDS011;10234;50.856;15.716;2023-05-21T02:46:11;18.88;;;12.07;;
20146;SDS011;10234;50.856;15.716;2023-05-21T02:48:40;17.48;;;11.52;;
20146;SDS011;10234;50.856;15.716;2023-05-21T02:51:07;19.20;;;9.55;;
20146;SDS011;10234;50.856;15.716;2023-05-21T02:53:33;16.33;;;10.38;;
20146;SDS011;10234;50.856;15.716;2023-05-21T02:56:00;18.02;;;10.68;;
20146;SDS011;10234;50.856;15.716;2023-05-21T02:58:27;18.95;;;11.25;;
20146;SDS011;10234;50.856;15.716;2023-05-21T03:00:54;16.33;;;9.75;;
20146;SDS011;10234;50.856;15.716;2023-05-21T03:03:21;15.35;;;10.07;;
20146;SDS011;10234;50.856;15.716;2023-05-21T03:05:50;15.80;;;10.27;;
20146;SDS011;10234;50.856;15.716;2023-05-21T03:08:17;15.38;;;10.32;;
20146;SDS011;10234;50.856;15.716;2023-05-21T03:10:44;16.77;;;11.00;;
20146;SDS011;10234;50.856;15.716;2023-05-21T03:13:11;23.98;;;10.50;;
20146;SDS011;10234;50.856;15.716;2023-05-21T03:15:38;16.88;;;10.02;;
20146;SDS011;10234;50.856;15.716;2023-05-21T03:18:05;15.70;;;9.70;;
20146;SDS011;10234;50.856;15.716;2023-05-21T03:20:32;17.38;;;9.98;;
20146;SDS011;10234;50.856;15.716;2023-05-21T03:23:01;15.82;;;10.70;;
20146;SDS011;10234;50.856;15.716;2023-05-21T03:25:28;16.77;;;9.65;;
20146;SDS011;10234;50.856;15.716;2023-05-21T03:27:55;20.08;;;10.43;;
20146;SDS011;10234;50.856;15.716;2023-05-21T03:30:22;15.60;;;11.20;;
20146;SDS011;10234;50.856;15.716;2023-05-21T03:32:50;14.35;;;10.07;;
20146;SDS011;10234;50.856;15.716;2023-05-21T03:35:17;16.45;;;10.25;;
20146;SDS011;10234;50.856;15.716;2023-05-21T03:37:44;17.77;;;11.65;;
20146;SDS011;10234;50.856;15.716;2023-05-21T03:40:13;16.80;;;10.77;;
20146;SDS011;10234;50.856;15.716;2023-05-21T03:42:40;17.70;;;10.30;;
20146;SDS011;10234;50.856;15.716;2023-05-21T03:45:07;15.43;;;11.18;;
20146;SDS011;10234;50.856;15.716;2023-05-21T03:47:34;16.25;;;10.35;;
20146;SDS011;10234;50.856;15.716;2023-05-21T03:50:02;16.35;;;10.23;;
20146;SDS011;10234;50.856;15.716;2023-05-21T03:52:29;15.98;;;10.98;;
20146;SDS011;10234;50.856;15.716;2023-05-21T03:54:56;15.90;;;10.95;;
20146;SDS011;10234;50.856;15.716;2023-05-21T03:57:24;18.67;;;11.50;;
20146;SDS011;10234;50.856;15.716;2023-05-21T03:59:51;15.73;;;9.90;;
20146;SDS011;10234;50.856;15.716;2023-05-21T04:02:19;18.27;;;10.25;;
20146;SDS011;10234;50.856;15.716;2023-05-21T04:04:46;15.40;;;11.05;;
20146;SDS011;10234;50.856;15.716;2023-05-21T04:07:15;14.23;;;9.50;;
20146;SDS011;10234;50.856;15.716;2023-05-21T04:09:43;14.38;;;9.95;;
20146;SDS011;10234;50.856;15.716;2023-05-21T04:12:10;14.70;;;10.15;;
20146;SDS011;10234;50.856;15.716;2023-05-21T04:14:38;15.77;;;9.25;;
20146;SDS011;10234;50.856;15.716;2023-05-21T04:17:05;14.02;;;9.35;;
20146;SDS011;10234;50.856;15.716;2023-05-21T04:19:33;13.35;;;9.77;;
20146;SDS011;10234;50.856;15.716;2023-05-21T04:21:59;16.10;;;9.13;;
20146;SDS011;10234;50.856;15.716;2023-05-21T04:24:27;11.65;;;8.95;;
20146;SDS011;10234;50.856;15.716;2023-05-21T04:26:53;11.85;;;8.43;;
20146;SDS011;10234;50.856;15.716;2023-05-21T04:29:21;16.40;;;9.20;;
20146;SDS011;10234;50.856;15.716;2023-05-21T04:31:51;13.23;;;8.02;;
20146;SDS011;10234;50.856;15.716;2023-05-21T04:34:18;10.05;;;7.60;;
20146;SDS011;10234;50.856;15.716;2023-05-21T04:36:45;11.35;;;7.30;;
20146;SDS011;10234;50.856;15.716;2023-05-21T04:39:12;10.68;;;7.97;;
20146;SDS011;10234;50.856;15.716;2023-05-21T04:41:40;12.50;;;8.73;;
20146;SDS011;10234;50.856;15.716;2023-05-21T04:44:08;11.10;;;6.97;;
20146;SDS011;10234;50.856;15.716;2023-05-21T04:46:38;11.38;;;7.90;;
20146;SDS011;10234;50.856;15.716;2023-05-21T04:49:08;11.27;;;7.80;;
20146;SDS011;10234;50.856;15.716;2023-05-21T04:51:35;12.07;;;8.27;;
20146;SDS011;10234;50.856;15.716;2023-05-21T04:54:02;11.52;;;8.15;;
20146;SDS011;10234;50.856;15.716;2023-05-21T04:56:30;11.30;;;7.95;;
20146;SDS011;10234;50.856;15.716;2023-05-21T04:58:56;9.23;;;6.80;;
20146;SDS011;10234;50.856;15.716;2023-05-21T05:01:24;11.35;;;7.65;;
20146;SDS011;10234;50.856;15.716;2023-05-21T05:03:53;10.75;;;7.50;;
20146;SDS011;10234;50.856;15.716;2023-05-21T05:06:21;9.35;;;7.47;;
20146;SDS011;10234;50.856;15.716;2023-05-21T05:08:49;10.13;;;7.57;;
20146;SDS011;10234;50.856;15.716;2023-05-21T05:11:17;8.93;;;6.88;;
20146;SDS011;10234;50.856;15.716;2023-05-21T05:13:44;10.02;;;7.53;;
20146;SDS011;10234;50.856;15.716;2023-05-21T05:16:11;11.00;;;6.97;;
20146;SDS011;10234;50.856;15.716;2023-05-21T05:18:38;9.05;;;6.78;;
20146;SDS011;10234;50.856;15.716;2023-05-21T05:21:05;8.50;;;6.97;;
20146;SDS011;10234;50.856;15.716;2023-05-21T05:23:33;8.32;;;7.22;;
20146;SDS011;10234;50.856;15.716;2023-05-21T05:26:00;10.30;;;7.20;;
20146;SDS011;10234;50.856;15.716;2023-05-21T05:28:27;9.02;;;7.30;;
20146;SDS011;10234;50.856;15.716;2023-05-21T05:30:53;10.73;;;7.97;;
20146;SDS011;10234;50.856;15.716;2023-05-21T05:33:20;11.90;;;7.50;;
20146;SDS011;10234;50.856;15.716;2023-05-21T05:35:47;8.35;;;7.43;;
20146;SDS011;10234;50.856;15.716;2023-05-21T05:38:14;10.38;;;7.20;;
20146;SDS011;10234;50.856;15.716;2023-05-21T05:40:43;10.82;;;7.38;;
20146;SDS011;10234;50.856;15.716;2023-05-21T05:43:10;8.80;;;6.97;;
20146;SDS011;10234;50.856;15.716;2023-05-21T05:45:37;8.65;;;7.45;;
20146;SDS011;10234;50.856;15.716;2023-05-21T05:48:04;10.80;;;7.15;;
20146;SDS011;10234;50.856;15.716;2023-05-21T05:50:31;9.40;;;7.22;;
20146;SDS011;10234;50.856;15.716;2023-05-21T05:52:58;9.05;;;7.03;;
20146;SDS011;10234;50.856;15.716;2023-05-21T05:55:25;7.80;;;7.00;;
20146;SDS011;10234;50.856;15.716;2023-05-21T05:57:54;8.23;;;6.93;;
20146;SDS011;10234;50.856;15.716;2023-05-21T06:00:20;9.68;;;6.95;;
20146;SDS011;10234;50.856;15.716;2023-05-21T06:02:47;8.18;;;7.45;;
20146;SDS011;10234;50.856;15.716;2023-05-21T06:05:16;7.97;;;6.60;;
20146;SDS011;10234;50.856;15.716;2023-05-21T06:07:43;6.85;;;6.07;;
20146;SDS011;10234;50.856;15.716;2023-05-21T06:10:09;7.28;;;6.35;;
20146;SDS011;10234;50.856;15.716;2023-05-21T06:12:36;7.32;;;6.63;;
20146;SDS011;10234;50.856;15.716;2023-05-21T06:15:05;7.43;;;6.60;;
20146;SDS011;10234;50.856;15.716;2023-05-21T06:17:32;7.20;;;6.50;;
20146;SDS011;10234;50.856;15.716;2023-05-21T06:19:59;7.53;;;6.72;;
20146;SDS011;10234;50.856;15.716;2023-05-21T06:22:26;7.68;;;6.88;;
20146;SDS011;10234;50.856;15.716;2023-05-21T06:24:53;7.68;;;6.85;;
20146;SDS011;10234;50.856;15.716;2023-05-21T06:27:20;8.45;;;7.28;;
20146;SDS011;10234;50.856;15.716;2023-05-21T06:29:47;8.63;;;6.50;;
20146;SDS011;10234;50.856;15.716;2023-05-21T06:32:15;8.30;;;6.80;;
20146;SDS011;10234;50.856;15.716;2023-05-21T06:34:42;7.85;;;7.05;;
20146;SDS011;10234;50.856;15.716;2023-05-21T06:37:08;8.98;;;7.07;;
20146;SDS011;10234;50.856;15.716;2023-05-21T06:39:35;8.63;;;7.13;;
20146;SDS011;10234;50.856;15.716;2023-05-21T06:42:02;7.82;;;6.95;;
20146;SDS011;10234;50.856;15.716;2023-05-21T06:44:29;8.57;;;7.40;;
20146;SDS011;10234;50.856;15.716;2023-05-21T06:46:56;8.93;;;7.07;;
20146;SDS011;10234;50.856;15.716;2023-05-21T06:49:24;7.72;;;6.93;;
20146;SDS011;10234;50.856;15.716;2023-05-21T06:51:51;8.10;;;7.30;;
20146;SDS011;10234;50.856;15.716;2023-05-21T06:54:18;7.70;;;6.90;;
20146;SDS011;10234;50.856;15.716;2023-05-21T06:56:44;7.55;;;6.55;;
20146;SDS011;10234;50.856;15.716;2023-05-21T06:59:11;6.80;;;6.20;;
20146;SDS011;10234;50.856;15.716;2023-05-21T07:01:38;8.90;;;6.65;;
20146;SDS011;10234;50.856;15.716;2023-05-21T07:04:07;6.82;;;6.18;;
20146;SDS011;10234;50.856;15.716;2023-05-21T07:06:36;8.43;;;6.90;;
20146;SDS011;10234;50.856;15.716;2023-05-21T07:09:02;7.72;;;6.45;;
20146;SDS011;10234;50.856;15.716;2023-05-21T07:11:30;6.75;;;6.00;;
20146;SDS011;10234;50.856;15.716;2023-05-21T07:13:57;6.53;;;5.93;;
20146;SDS011;10234;50.856;15.716;2023-05-21T07:16:25;6.80;;;5.85;;
20146;SDS011;10234;50.856;15.716;2023-05-21T07:18:52;6.28;;;5.70;;
20146;SDS011;10234;50.856;15.716;2023-05-21T07:21:19;7.82;;;7.03;;
20146;SDS011;10234;50.856;15.716;2023-05-21T07:23:47;7.00;;;6.30;;
20146;SDS011;10234;50.856;15.716;2023-05-21T07:26:13;8.35;;;6.47;;
20146;SDS011;10234;50.856;15.716;2023-05-21T07:28:40;6.43;;;5.70;;
20146;SDS011;10234;50.856;15.716;2023-05-21T07:31:07;6.95;;;5.60;;
20146;SDS011;10234;50.856;15.716;2023-05-21T07:33:36;8.93;;;5.82;;
20146;SDS011;10234;50.856;15.716;2023-05-21T07:36:03;6.78;;;6.07;;
20146;SDS011;10234;50.856;15.716;2023-05-21T07:38:31;6.72;;;6.13;;
20146;SDS011;10234;50.856;15.716;2023-05-21T07:40:59;7.03;;;6.32;;
20146;SDS011;10234;50.856;15.716;2023-05-21T07:43:26;6.35;;;5.70;;
20146;SDS011;10234;50.856;15.716;2023-05-21T07:45:53;5.78;;;5.28;;
20146;SDS011;10234;50.856;15.716;2023-05-21T07:48:20;6.95;;;5.63;;
20146;SDS011;10234;50.856;15.716;2023-05-21T07:50:47;6.63;;;5.93;;
20146;SDS011;10234;50.856;15.716;2023-05-21T07:53:16;7.00;;;5.82;;
20146;SDS011;10234;50.856;15.716;2023-05-21T07:55:43;6.03;;;4.90;;
20146;SDS011;10234;50.856;15.716;2023-05-21T07:58:14;4.72;;;4.30;;
20146;SDS011;10234;50.856;15.716;2023-05-21T08:00:41;4.97;;;4.57;;
20146;SDS011;10234;50.856;15.716;2023-05-21T08:03:11;4.32;;;3.90;;
20146;SDS011;10234;50.856;15.716;2023-05-21T08:05:40;3.85;;;3.55;;
20146;SDS011;10234;50.856;15.716;2023-05-21T08:08:08;3.50;;;3.20;;
20146;SDS011;10234;50.856;15.716;2023-05-21T08:10:35;4.47;;;3.80;;
20146;SDS011;10234;50.856;15.716;2023-05-21T08:13:02;3.42;;;3.13;;
20146;SDS011;10234;50.856;15.716;2023-05-21T08:15:31;3.47;;;3.17;;
20146;SDS011;10234;50.856;15.716;2023-05-21T08:17:57;4.47;;;3.28;;
20146;SDS011;10234;50.856;15.716;2023-05-21T08:20:24;3.78;;;3.45;;
20146;SDS011;10234;50.856;15.716;2023-05-21T08:22:51;3.05;;;2.80;;
20146;SDS011;10234;50.856;15.716;2023-05-21T08:25:20;3.05;;;2.83;;
20146;SDS011;10234;50.856;15.716;2023-05-21T08:27:47;2.70;;;2.50;;
20146;SDS011;10234;50.856;15.716;2023-05-21T08:30:14;3.53;;;3.20;;
20146;SDS011;10234;50.856;15.716;2023-05-21T08:32:42;3.47;;;3.13;;
20146;SDS011;10234;50.856;15.716;2023-05-21T08:35:09;3.72;;;3.40;;
20146;SDS011;10234;50.856;15.716;2023-05-21T08:37:36;3.83;;;3.53;;
20146;SDS011;10234;50.856;15.716;2023-05-21T08:40:03;3.10;;;2.80;;
20146;SDS011;10234;50.856;15.716;2023-05-21T08:42:33;4.25;;;3.40;;
20146;SDS011;10234;50.856;15.716;2023-05-21T08:45:05;3.38;;;3.08;;
20146;SDS011;10234;50.856;15.716;2023-05-21T08:47:36;3.47;;;3.05;;
20146;SDS011;10234;50.856;15.716;2023-05-21T08:50:04;3.08;;;2.80;;
20146;SDS011;10234;50.856;15.716;2023-05-21T08:52:34;3.03;;;2.72;;
20146;SDS011;10234;50.856;15.716;2023-05-21T08:55:02;3.10;;;2.80;;
20146;SDS011;10234;50.856;15.716;2023-05-21T08:57:30;3.60;;;3.25;;
20146;SDS011;10234;50.856;15.716;2023-05-21T08:59:57;3.47;;;3.17;;
20146;SDS011;10234;50.856;15.716;2023-05-21T09:02:24;3.58;;;3.22;;
20146;SDS011;10234;50.856;15.716;2023-05-21T09:04:52;4.30;;;3.38;;
20146;SDS011;10234;50.856;15.716;2023-05-21T09:07:24;5.78;;;3.13;;
20146;SDS011;10234;50.856;15.716;2023-05-21T09:09:54;5.95;;;3.95;;
20146;SDS011;10234;50.856;15.716;2023-05-21T09:12:22;4.03;;;3.35;;
20146;SDS011;10234;50.856;15.716;2023-05-21T09:14:49;3.53;;;3.22;;
20146;SDS011;10234;50.856;15.716;2023-05-21T09:17:16;3.38;;;3.08;;
20146;SDS011;10234;50.856;15.716;2023-05-21T09:22:34;4.05;;;3.30;;
20146;SDS011;10234;50.856;15.716;2023-05-21T09:25:03;3.67;;;3.33;;
20146;SDS011;10234;50.856;15.716;2023-05-21T09:27:31;5.20;;;3.45;;
20146;SDS011;10234;50.856;15.716;2023-05-21T09:29:59;4.90;;;3.50;;
20146;SDS011;10234;50.856;15.716;2023-05-21T09:32:26;4.45;;;3.53;;
20146;SDS011;10234;50.856;15.716;2023-05-21T09:34:53;4.90;;;4.03;;
20146;SDS011;10234;50.856;15.716;2023-05-21T09:37:20;5.50;;;3.60;;
20146;SDS011;10234;50.856;15.716;2023-05-21T09:39:48;4.30;;;3.85;;
20146;SDS011;10234;50.856;15.716;2023-05-21T09:42:15;3.97;;;3.60;;
20146;SDS011;10234;50.856;15.716;2023-05-21T09:44:42;4.35;;;3.53;;
20146;SDS011;10234;50.856;15.716;2023-05-21T09:47:09;4.85;;;3.85;;
20146;SDS011;10234;50.856;15.716;2023-05-21T09:49:36;5.07;;;3.50;;
20146;SDS011;10234;50.856;15.716;2023-05-21T09:52:04;4.43;;;3.47;;
20146;SDS011;10234;50.856;15.716;2023-05-21T09:54:32;5.65;;;3.50;;
20146;SDS011;10234;50.856;15.716;2023-05-21T09:57:00;4.50;;;3.78;;
20146;SDS011;10234;50.856;15.716;2023-05-21T09:59:34;4.25;;;3.15;;
20146;SDS011;10234;50.856;15.716;2023-05-21T10:02:01;5.10;;;3.63;;
20146;SDS011;10234;50.856;15.716;2023-05-21T10:04:28;4.65;;;3.40;;
20146;SDS011;10234;50.856;15.716;2023-05-21T10:06:56;4.50;;;4.10;;
20146;SDS011;10234;50.856;15.716;2023-05-21T10:09:25;6.50;;;5.55;;
20146;SDS011;10234;50.856;15.716;2023-05-21T10:11:54;8.68;;;5.20;;
20146;SDS011;10234;50.856;15.716;2023-05-21T10:14:24;6.07;;;5.43;;
20146;SDS011;10234;50.856;15.716;2023-05-21T10:16:53;8.18;;;5.80;;
20146;SDS011;10234;50.856;15.716;2023-05-21T10:19:20;6.70;;;5.70;;
20146;SDS011;10234;50.856;15.716;2023-05-21T10:21:48;9.18;;;6.47;;
20146;SDS011;10234;50.856;15.716;2023-05-21T10:24:16;9.02;;;6.22;;
20146;SDS011;10234;50.856;15.716;2023-05-21T10:26:44;9.02;;;6.35;;
20146;SDS011;10234;50.856;15.716;2023-05-21T10:29:11;9.32;;;6.97;;
20146;SDS011;10234;50.856;15.716;2023-05-21T10:31:42;7.90;;;6.45;;
20146;SDS011;10234;50.856;15.716;2023-05-21T10:34:13;8.77;;;5.93;;
20146;SDS011;10234;50.856;15.716;2023-05-21T10:36:40;6.90;;;6.20;;
20146;SDS011;10234;50.856;15.716;2023-05-21T10:39:07;6.22;;;5.63;;
20146;SDS011;10234;50.856;15.716;2023-05-21T10:41:37;7.07;;;6.10;;
20146;SDS011;10234;50.856;15.716;2023-05-21T10:44:14;7.57;;;6.70;;
20146;SDS011;10234;50.856;15.716;2023-05-21T10:49:48;6.10;;;5.40;;
20146;SDS011;10234;50.856;15.716;2023-05-21T10:52:33;6.25;;;5.65;;
20146;SDS011;10234;50.856;15.716;2023-05-21T10:55:18;7.45;;;5.53;;
20146;SDS011;10234;50.856;15.716;2023-05-21T10:58:01;6.57;;;5.25;;
20146;SDS011;10234;50.856;15.716;2023-05-21T11:00:48;8.07;;;5.43;;
20146;SDS011;10234;50.856;15.716;2023-05-21T11:03:16;7.57;;;5.82;;
20146;SDS011;10234;50.856;15.716;2023-05-21T11:05:51;6.90;;;5.18;;
20146;SDS011;10234;50.856;15.716;2023-05-21T11:08:20;8.77;;;6.20;;
20146;SDS011;10234;50.856;15.716;2023-05-21T11:10:53;6.65;;;5.25;;
20146;SDS011;10234;50.856;15.716;2023-05-21T11:13:22;6.55;;;5.72;;
20146;SDS011;10234;50.856;15.716;2023-05-21T11:16:03;6.03;;;5.15;;
20146;SDS011;10234;50.856;15.716;2023-05-21T11:21:32;8.52;;;6.03;;
20146;SDS011;10234;50.856;15.716;2023-05-21T11:24:00;9.50;;;5.95;;
20146;SDS011;10234;50.856;15.716;2023-05-21T11:29:38;7.05;;;5.78;;
20146;SDS011;10234;50.856;15.716;2023-05-21T11:32:06;7.18;;;5.65;;
20146;SDS011;10234;50.856;15.716;2023-05-21T11:34:35;8.18;;;6.10;;
20146;SDS011;10234;50.856;15.716;2023-05-21T11:39:56;7.35;;;5.55;;
20146;SDS011;10234;50.856;15.716;2023-05-21T11:42:28;6.55;;;5.95;;
20146;SDS011;10234;50.856;15.716;2023-05-21T11:44:56;6.15;;;5.35;;
20146;SDS011;10234;50.856;15.716;2023-05-21T11:47:24;7.65;;;6.35;;
20146;SDS011;10234;50.856;15.716;2023-05-21T11:49:52;7.35;;;5.55;;
20146;SDS011;10234;50.856;15.716;2023-05-21T11:52:19;6.97;;;5.85;;
20146;SDS011;10234;50.856;15.716;2023-05-21T11:54:49;8.10;;;5.85;;
20146;SDS011;10234;50.856;15.716;2023-05-21T11:57:22;7.78;;;6.32;;
20146;SDS011;10234;50.856;15.716;2023-05-21T11:59:54;6.03;;;5.10;;
20146;SDS011;10234;50.856;15.716;2023-05-21T12:02:23;6.72;;;3.78;;
20146;SDS011;10234;50.856;15.716;2023-05-21T12:04:50;4.93;;;2.83;;
20146;SDS011;10234;50.856;15.716;2023-05-21T12:07:24;2.58;;;2.10;;
20146;SDS011;10234;50.856;15.716;2023-05-21T12:09:55;2.28;;;2.05;;
20146;SDS011;10234;50.856;15.716;2023-05-21T12:12:24;3.50;;;1.77;;
20146;SDS011;10234;50.856;15.716;2023-05-21T12:14:53;1.88;;;1.48;;
20146;SDS011;10234;50.856;15.716;2023-05-21T12:17:21;2.63;;;1.83;;
20146;SDS011;10234;50.856;15.716;2023-05-21T12:19:49;2.00;;;1.80;;
20146;SDS011;10234;50.856;15.716;2023-05-21T12:22:17;1.80;;;1.70;;
20146;SDS011;10234;50.856;15.716;2023-05-21T12:24:48;3.38;;;1.90;;
20146;SDS011;10234;50.856;15.716;2023-05-21T12:27:19;3.13;;;2.15;;
20146;SDS011;10234;50.856;15.716;2023-05-21T12:29:48;2.53;;;1.73;;
20146;SDS011;10234;50.856;15.716;2023-05-21T12:32:19;2.80;;;2.50;;
20146;SDS011;10234;50.856;15.716;2023-05-21T12:34:47;4.45;;;3.80;;
20146;SDS011;10234;50.856;15.716;2023-05-21T12:37:15;6.20;;;3.75;;
20146;SDS011;10234;50.856;15.716;2023-05-21T12:39:45;5.68;;;4.18;;
20146;SDS011;10234;50.856;15.716;2023-05-21T12:42:12;4.30;;;3.67;;
20146;SDS011;10234;50.856;15.716;2023-05-21T12:44:42;3.90;;;3.45;;
20146;SDS011;10234;50.856;15.716;2023-05-21T12:47:10;3.53;;;3.20;;
20146;SDS011;10234;50.856;15.716;2023-05-21T12:49:38;3.28;;;2.97;;
20146;SDS011;10234;50.856;15.716;2023-05-21T12:52:07;3.22;;;2.92;;
20146;SDS011;10234;50.856;15.716;2023-05-21T12:54:35;3.75;;;3.35;;
20146;SDS011;10234;50.856;15.716;2023-05-21T12:57:07;3.97;;;3.40;;
20146;SDS011;10234;50.856;15.716;2023-05-21T12:59:49;4.28;;;3.40;;
20146;SDS011;10234;50.856;15.716;2023-05-21T13:02:20;4.35;;;3.75;;
20146;SDS011;10234;50.856;15.716;2023-05-21T13:04:53;3.47;;;3.17;;
20146;SDS011;10234;50.856;15.716;2023-05-21T13:07:20;4.35;;;3.60;;
20146;SDS011;10234;50.856;15.716;2023-05-21T13:09:47;3.63;;;3.33;;
20146;SDS011;10234;50.856;15.716;2023-05-21T13:12:17;5.25;;;3.35;;
20146;SDS011;10234;50.856;15.716;2023-05-21T13:14:44;3.65;;;3.10;;
20146;SDS011;10234;50.856;15.716;2023-05-21T13:17:12;4.63;;;4.00;;
20146;SDS011;10234;50.856;15.716;2023-05-21T13:19:39;5.63;;;4.20;;
20146;SDS011;10234;50.856;15.716;2023-05-21T13:22:06;6.20;;;4.50;;
20146;SDS011;10234;50.856;15.716;2023-05-21T13:24:34;5.72;;;4.40;;
20146;SDS011;10234;50.856;15.716;2023-05-21T13:27:01;6.72;;;4.28;;
20146;SDS011;10234;50.856;15.716;2023-05-21T13:29:28;5.13;;;4.07;;
20146;SDS011;10234;50.856;15.716;2023-05-21T13:31:56;5.15;;;3.60;;
20146;SDS011;10234;50.856;15.716;2023-05-21T13:34:25;3.92;;;3.30;;
20146;SDS011;10234;50.856;15.716;2023-05-21T13:36:52;4.35;;;3.95;;
20146;SDS011;10234;50.856;15.716;2023-05-21T13:39:19;4.50;;;3.58;;
20146;SDS011;10234;50.856;15.716;2023-05-21T13:41:50;5.70;;;3.08;;
20146;SDS011;10234;50.856;15.716;2023-05-21T13:44:17;6.32;;;2.95;;
20146;SDS011;10234;50.856;15.716;2023-05-21T13:46:47;3.97;;;3.00;;
20146;SDS011;10234;50.856;15.716;2023-05-21T13:49:15;6.63;;;3.00;;
20146;SDS011;10234;50.856;15.716;2023-05-21T13:51:43;5.60;;;3.47;;
20146;SDS011;10234;50.856;15.716;2023-05-21T13:54:10;3.97;;;3.53;;
20146;SDS011;10234;50.856;15.716;2023-05-21T13:56:38;4.68;;;3.65;;
20146;SDS011;10234;50.856;15.716;2023-05-21T13:59:05;4.35;;;3.20;;
20146;SDS011;10234;50.856;15.716;2023-05-21T14:01:32;4.10;;;3.60;;
20146;SDS011;10234;50.856;15.716;2023-05-21T14:03:59;4.97;;;3.13;;
20146;SDS011;10234;50.856;15.716;2023-05-21T14:06:28;5.85;;;3.42;;
20146;SDS011;10234;50.856;15.716;2023-05-21T14:08:58;6.65;;;3.60;;
20146;SDS011;10234;50.856;15.716;2023-05-21T14:11:25;6.00;;;3.47;;
20146;SDS011;10234;50.856;15.716;2023-05-21T14:13:52;3.58;;;2.97;;
20146;SDS011;10234;50.856;15.716;2023-05-21T14:16:19;5.03;;;3.40;;
20146;SDS011;10234;50.856;15.716;2023-05-21T14:18:48;6.93;;;4.63;;
20146;SDS011;10234;50.856;15.716;2023-05-21T14:21:16;5.78;;;4.10;;
20146;SDS011;10234;50.856;15.716;2023-05-21T14:23:46;4.55;;;3.80;;
20146;SDS011;10234;50.856;15.716;2023-05-21T14:26:15;4.93;;;4.10;;
20146;SDS011;10234;50.856;15.716;2023-05-21T14:28:42;8.82;;;4.25;;
20146;SDS011;10234;50.856;15.716;2023-05-21T14:31:10;4.65;;;3.92;;
20146;SDS011;10234;50.856;15.716;2023-05-21T14:33:37;4.72;;;4.28;;
20146;SDS011;10234;50.856;15.716;2023-05-21T14:36:04;7.60;;;4.40;;
20146;SDS011;10234;50.856;15.716;2023-05-21T14:38:31;5.68;;;4.03;;
20146;SDS011;10234;50.856;15.716;2023-05-21T14:40:59;4.97;;;4.10;;
20146;SDS011;10234;50.856;15.716;2023-05-21T14:43:27;6.45;;;4.22;;
20146;SDS011;10234;50.856;15.716;2023-05-21T14:45:54;6.82;;;3.55;;